Tiempo atmosférico en la estación meteorológica de Brozas , Cáceres (411 m.)



Fecha
DESCASC
Temp. máxima en grados centígrados (hora)
DESCASC
Temp. mínima en grados centígrados (hora)
DESCASC
Temp. media en grados centígrados
DESCASC
Racha de viento máxima en m/sg (hora)
DESCASC
Velocidad máxima media en intervalos de 10 minutos(hora)
DESCASC
Precipitaciones diarias en mm
DESCASC
Precipitaciones de 00:00 a 06:00 en mm
DESCASC
Precipitaciones de 06:00 a 12:00 en mm
DESCASC
Precipitaciones de 12:00 a 18:00 en mm
DESCASC
Precipitaciones de 18:00 a 24:00 en mm
DESCASC
08-12-2019 11.6 (14:20) 7.1 (07:30) 9.4 5 (23:50) 3.89 (23:59) 0.2 0 0 0.2 0
07-12-2019 14.5 (15:50) 5.6 (07:00) 10 6.39 (06:30) 5 (07:50) 0 0 0 0 0
06-12-2019 14.6 (14:10) 6.3 (07:40) 10.5 9.72 (13:10) 7.22 (13:30) 0 0 0 0 0
05-12-2019 13.5 (15:10) 5.3 (00:00) 9.4 13.06 (13:50) 10 (13:50) 0 0 0 0 0
04-12-2019 12.9 (15:40) 3.7 (00:00) 8.3 8.61 (11:10) 6.11 (11:10) 0 0 0 0 0
03-12-2019 11.6 (16:00) 3.6 (00:00) 7.6 10.28 (06:40) 8.06 (06:40) 0 0 0 0 0
02-12-2019 12.8 (16:20) 6 (00:00) 9.4 13.61 (15:50) 9.17 (14:50) 0.4 0.4 0 0 0
01-12-2019 12.6 (12:50) 6.1 (00:00) 9.4 9.17 (11:00) 6.67 (11:00) 6.4 0.2 3.4 2.8 0
30-11-2019 14 (15:00) 8.4 (00:00) 11.2 12.78 (15:20) 9.17 (11:50) 2.2 0 0 2 0.2
29-11-2019 16.1 (15:10) 12.3 (00:00) 14.2 7.78 (00:20) 6.39 (00:20) 0 0 0 0 0
28-11-2019 14.9 (16:10) 8.5 (00:00) 11.7 9.44 (12:50) 7.5 (12:50) 0.4 0 0 0.2 0.2
27-11-2019 14.8 (15:20) 9.3 (00:00) 12.1 10.28 (14:30) 8.06 (14:20) 0.6 0.6 0 0 0
26-11-2019 14.9 (13:40) 10.8 (00:00) 12.8 13.61 (14:50) 10.28 (16:10) 10 1 0.6 6.8 1.6
25-11-2019 16.7 (14:50) 11.4 (00:00) 14.1 10.28 (00:40) 7.78 (00:40) 3 2.8 0.2 0 0
24-11-2019 13.5 (15:20) 5.4 (00:00) 9.5 9.17 (23:50) 6.94 (23:50) 0.2 0 0 0 0.2
23-11-2019 13.4 (14:20) 6.9 (00:00) 10.1 18.33 (00:30) 13.06 (00:30) 0.2 0.2 0 0 0
22-11-2019 16.1 (14:20) 9.7 (00:00) 12.9 20 (18:10) 15 (18:10) 20 2.8 14.8 1.2 1.2
21-11-2019 13.4 (15:30) 8.2 (00:00) 10.8 6.39 (06:00) 4.72 (06:00) 2.2 1.2 1 0 0
20-11-2019 8.7 (17:30) 6.7 (00:00) 7.7 7.5 (14:20) 5.28 (14:20) 16.6 5.6 8.6 2 0.4
19-11-2019 10.7 (16:10) 4 (00:00) 7.3 4.44 (17:10) 3.61 (17:00) 0 0 0 0 0
18-11-2019 13.2 (16:00) 3.8 (00:00) 8.5 8.89 (00:30) 7.22 (02:20) 0 0 0 0 0
17-11-2019 12.2 (17:20) 5.8 (00:00) 9 10.56 (20:10) 8.06 (20:10) 6.8 0.8 2.2 3 0.8
16-11-2019 11.8 (14:20) 1.6 (00:00) 6.7 8.33 (15:50) 6.39 (15:50) 0 0 0 0 0
15-11-2019 10.9 (14:40) 1.9 (00:00) 6.4 12.5 (15:10) 9.44 (15:30) 0 0 0 0 0
14-11-2019 11 (15:00) 5.8 (00:00) 8.4 21.39 (17:10) 14.72 (17:20) 0.6 0 0.6 0 0
13-11-2019 19 (15:10) 9.3 (00:00) 14.2 12.5 (02:50) 9.17 (02:50) 0.2 0.2 0 0 0
12-11-2019 15.6 (16:10) 5 (00:00) 10.3 12.22 (19:00) 9.17 (19:00) 0 0 0 0 0

Gráficas

Temp. máximas Temp. mínimas Temp. medias Precipitaciones Rachas de viento máximas Velocidades máximas media en intervalos de 10 minutos

Datos horarios

Fecha y hora oficial Temperatura (ºC) Velocidad del viento (km/h) Dirección del viento Racha (km/h) Dirección de racha Precipitación (mm) Presión (hPa) Tendencia (hPa) Humedad (%)
2019-12-11 23:00:00 5.3 11 Noroeste 19 Noroeste 0 -- -- 81
2019-12-11 22:00:00 5.6 14 Noroeste 15 Noroeste 0 -- -- 77
2019-12-11 21:00:00 6 11 Noroeste 26 Noroeste 0 -- -- 74
2019-12-11 20:00:00 7.1 22 Noroeste 38 Noroeste 0 -- -- 72
2019-12-11 19:00:00 8 27 Noroeste 34 Noroeste 0 -- -- 68
2019-12-11 18:00:00 9.4 17 Noroeste 35 Noroeste 0 -- -- 64
2019-12-11 17:00:00 11.2 25 Norte 36 Norte 0 -- -- 59
2019-12-11 16:00:00 11.9 27 Norte 40 Norte 0 -- -- 55
2019-12-11 15:00:00 12 30 Norte 47 Norte 0 -- -- 67
2019-12-11 14:00:00 11.4 20 Norte 35 Norte 0 -- -- 78
2019-12-11 13:00:00 10 14 Norte 22 Noroeste 0 -- -- 100
2019-12-11 12:00:00 8.3 17 Noroeste 27 Noroeste 0 -- -- 100
2019-12-11 11:00:00 7.7 16 Noroeste 22 Noroeste 0 -- -- 100
2019-12-11 10:00:00 8.1 9 Noroeste 13 Noroeste 0.8 -- -- 100
2019-12-11 09:00:00 7 5 Oeste 12 Sudoeste 0.4 -- -- 100
2019-12-11 08:00:00 6 8 Sudoeste 14 Sudoeste 0 -- -- 100
2019-12-11 07:00:00 5.7 12 Sudoeste 14 Sudoeste 0 -- -- 100
2019-12-11 06:00:00 5.5 8 Sur 9 Sur 0 -- -- 100
2019-12-11 05:00:00 6.1 6 Sur 7 Sur 0 -- -- 100
2019-12-11 04:00:00 5.8 5 Sur 8 Sur 0 -- -- 100
2019-12-11 03:00:00 6 6 Sur 6 Sur 0 -- -- 99
2019-12-11 02:00:00 6.7 3 Sur 6 Noroeste 0 -- -- 99
2019-12-11 01:00:00 7.1 4 Oeste 6 Noroeste 0 -- -- 99
2019-12-11 00:00:00 7.2 5 Noroeste 10 Noroeste 0 -- -- 100
2019-12-10 23:00:00 7.4 4 Sudoeste 5 Oeste 0 -- -- 99
2019-12-10 22:00:00 7.7 4 Sur 5 Sudeste 0 -- -- 98
2019-12-10 21:00:00 7.6 5 Sudeste 6 Sur 0 -- -- 95
2019-12-10 20:00:00 7.7 0 Calma 6 Nordeste 0 -- -- 95
2019-12-10 19:00:00 8.8 3 Norte 4 Oeste 0 -- -- 93
2019-12-10 18:00:00 10 2 Oeste 5 Sur 0 -- -- 89
2019-12-10 17:00:00 10.6 0 Calma 5 Noroeste 0 -- -- 86
2019-12-10 16:00:00 10.7 3 Noroeste 10 Noroeste 0 -- -- 86
2019-12-10 15:00:00 10.9 3 Oeste 8 Noroeste 0 -- -- 84
2019-12-10 14:00:00 10.2 3 Noroeste 8 Nordeste 0 -- -- 88
2019-12-10 13:00:00 9.2 4 Nordeste 10 Nordeste 0 -- -- 92
2019-12-10 12:00:00 8.6 5 Nordeste 15 Este 0 -- -- 96
2019-12-10 11:00:00 8 5 Este 14 Nordeste 0 -- -- 99
2019-12-10 10:00:00 7.6 8 Este 15 Este 0 -- -- 100
2019-12-10 09:00:00 7 7 Este 19 Este 0 -- -- 100
2019-12-10 08:00:00 6.6 13 Este 17 Este 0 -- -- 100
2019-12-10 07:00:00 6.5 9 Este 15 Este 0 -- -- 100
2019-12-10 06:00:00 6.6 12 Este 22 Este 0 -- -- 100
2019-12-10 05:00:00 6.7 9 Este 22 Este 0 -- -- 100
2019-12-10 04:00:00 6 14 Este 20 Este 0 -- -- 99
2019-12-10 03:00:00 7 17 Nordeste 19 Nordeste 0 -- -- 84
2019-12-10 02:00:00 7.9 13 Nordeste 16 Nordeste 0 -- -- 78
2019-12-10 01:00:00 8.4 11 Nordeste 13 Nordeste 0 -- -- 76
2019-12-10 00:00:00 9 8 Norte 12 Norte 0 -- -- 80
2019-12-09 23:00:00 9 10 Noroeste 12 Norte 0 -- -- 89
2019-12-09 22:00:00 8.9 9 Noroeste 13 Norte 0 -- -- 90
2019-12-09 21:00:00 10.4 7 Norte 8 Norte 0 -- -- 83
2019-12-09 20:00:00 9.7 2 Oeste 7 Sur 0 -- -- 93
2019-12-09 19:00:00 9.8 4 Sur 9 Sur 0 -- -- 94
2019-12-09 18:00:00 11.5 4 Sur 6 Sur 0 -- -- 87
2019-12-09 17:00:00 12.6 4 Sudoeste 9 Sudoeste 0 -- -- 84
2019-12-09 16:00:00 12.5 2 Sur 5 Sur 0 -- -- 85
2019-12-09 15:00:00 12.5 2 Noroeste 11 Noroeste 0 -- -- 85
2019-12-09 14:00:00 10.9 4 Noroeste 8 Oeste 0 -- -- 100
2019-12-09 13:00:00 9.1 4 Sur 9 Sudeste 0 -- -- 100
2019-12-09 12:00:00 8.8 3 Sur 6 Sur 0 -- -- 100
2019-12-09 11:00:00 7.3 0 Calma 7 Sudeste 0 -- -- 100
2019-12-09 10:00:00 6.5 2 Este 8 Sudeste 0 -- -- 100
2019-12-09 09:00:00 6.2 0 Calma 5 Oeste 0 -- -- 100
2019-12-09 08:00:00 7 6 Noroeste 8 Noroeste 0.2 -- -- 100
2019-12-09 07:00:00 7.9 7 Norte 13 Noroeste 0 -- -- 100
2019-12-09 06:00:00 8.2 8 Noroeste 18 Noroeste 0 -- -- 100
2019-12-09 05:00:00 8.9 14 Noroeste 18 Noroeste 0 -- -- 100
2019-12-09 04:00:00 9.5 13 Norte 16 Norte 0 -- -- 100
2019-12-09 03:00:00 10.4 14 Norte 21 Noroeste 0 -- -- 100
2019-12-09 02:00:00 10.9 15 Noroeste 21 Noroeste 0 -- -- 100
2019-12-09 01:00:00 11.3 14 Noroeste 19 Noroeste 0 -- -- 100
2019-12-09 00:00:00 11.5 14 Noroeste 18 Noroeste 0 -- -- 100
2019-12-08 23:00:00 11.1 11 Oeste 15 Oeste 0 -- -- 100
2019-12-08 22:00:00 11.1 3 Norte 8 Norte 0 -- -- 100
2019-12-08 21:00:00 11 4 Sur 8 Sudoeste 0 -- -- 99
2019-12-08 20:00:00 11 2 Sur 8 Sudoeste 0 -- -- 99
2019-12-08 19:00:00 10.9 5 Sur 6 Sur 0 -- -- 99
2019-12-08 18:00:00 10.8 2 Sudoeste 10 Oeste 0 -- -- 99
2019-12-08 17:00:00 10.8 8 Oeste 11 Oeste 0.2 -- -- 99
2019-12-08 16:00:00 10.7 5 Noroeste 14 Noroeste 0 -- -- 97
2019-12-08 15:00:00 11 12 Noroeste 17 Oeste 0 -- -- 94
2019-12-08 14:00:00 11 5 Oeste 9 Oeste 0 -- -- 89
2019-12-08 13:00:00 10.1 4 Noroeste 9 Noroeste 0 -- -- 93
2019-12-08 12:00:00 9.3 4 Oeste 10 Sudoeste 0 -- -- 96
2019-12-08 11:00:00 8.1 8 Sur 10 Sur 0 -- -- 96
2019-12-08 10:00:00 7.2 6 Sur 8 Sudeste 0 -- -- 97
2019-12-08 09:00:00 8 0 Calma 5 Noroeste 0 -- -- 96
2019-12-08 08:00:00 7.3 0 Calma 5 Sur 0 -- -- 97
2019-12-08 07:00:00 7.3 4 Sur 6 Noroeste 0 -- -- 95
2019-12-08 06:00:00 7.9 5 Oeste 8 Oeste 0 -- -- 92
2019-12-08 05:00:00 9.2 3 Oeste 4 Oeste 0 -- -- 87
2019-12-08 04:00:00 9.1 3 Sur 6 Sur 0 -- -- 88
2019-12-08 03:00:00 8.6 5 Sur 6 Sur 0 -- -- 91
2019-12-08 02:00:00 8.8 4 Sudoeste 7 Sudoeste 0 -- -- 89
2019-12-08 01:00:00 9.2 4 Sur 8 Sur 0 -- -- 89
2019-12-08 00:00:00 10.1 5 Sudoeste 7 Sur 0 -- -- 83
2019-12-07 23:00:00 10 -- -- -- -- 0 -- -- 84
2019-12-07 22:00:00 10.5 5 Oeste 6 Oeste 0 -- -- 81
2019-12-07 21:00:00 10.5 2 Sudoeste 3 Sudoeste 0 -- -- 81
2019-12-07 20:00:00 11.1 0 Calma 5 Noroeste 0 -- -- 78
2019-12-07 19:00:00 11.7 2 Norte -- -- 0 -- -- 76
2019-12-07 18:00:00 12.7 2 Nordeste 5 Norte 0 -- -- 70
2019-12-07 17:00:00 14 4 Noroeste 6 Nordeste 0 -- -- 68
2019-12-07 16:00:00 14.2 4 Nordeste 10 Nordeste 0 -- -- 69
2019-12-07 15:00:00 14 3 Este 9 Sudeste 0 -- -- 72
2019-12-07 14:00:00 13.6 3 Sudeste 12 Sudeste 0 -- -- 73
2019-12-07 13:00:00 12.6 8 Este 20 Este 0 -- -- 76
2019-12-07 12:00:00 11.3 12 Este 18 Este 0 -- -- 81
2019-12-07 11:00:00 9.4 11 Nordeste 18 Este 0 -- -- 85
2019-12-07 10:00:00 7.6 10 Norte 22 Nordeste 0 -- -- 90
2019-12-07 09:00:00 7.1 17 Este 22 Nordeste 0 -- -- 91
2019-12-07 08:00:00 6.4 18 Nordeste 22 Nordeste 0 -- -- 92
2019-12-07 07:00:00 5.6 11 Nordeste 23 Nordeste 0 -- -- 92
2019-12-07 06:00:00 6.5 14 Nordeste 22 Este 0 -- -- 92
2019-12-07 05:00:00 6.6 15 Nordeste 19 Nordeste 0 -- -- 92
2019-12-07 04:00:00 6.3 13 Nordeste 19 Este 0 -- -- 93
2019-12-07 03:00:00 7.2 16 Este 20 Este 0 -- -- 90
2019-12-07 02:00:00 8 18 Este 21 Este 0 -- -- 87
2019-12-07 01:00:00 7.9 15 Nordeste 18 Nordeste 0 -- -- 87
2019-12-07 00:00:00 7.9 11 Nordeste 16 Nordeste 0 -- -- 86
2019-12-06 23:00:00 8.3 15 Nordeste 18 Nordeste 0 -- -- 85
2019-12-06 22:00:00 8.6 13 Norte 15 Norte 0 -- -- 83
2019-12-06 21:00:00 9.4 10 Nordeste 16 Este 0 -- -- 79
2019-12-06 20:00:00 10 12 Nordeste 15 Este 0 -- -- 77
2019-12-06 19:00:00 10.5 10 Nordeste 15 Este 0 -- -- 75
2019-12-06 18:00:00 11.8 10 Este 21 Este 0 -- -- 71
2019-12-06 17:00:00 13.8 15 Este 26 Este 0 -- -- 64
2019-12-06 16:00:00 14.4 17 Este 28 Este 0 -- -- 62
2019-12-06 15:00:00 14.4 19 Nordeste 32 Este 0 -- -- 64
2019-12-06 14:00:00 14.4 20 Nordeste 35 Este 0 -- -- 67
2019-12-06 13:00:00 13.9 19 Este 26 Este 0 -- -- 69
2019-12-06 12:00:00 12.5 17 Nordeste 27 Nordeste 0 -- -- 74
2019-12-06 11:00:00 10.8 19 Este 27 Este 0 -- -- 80
2019-12-06 10:00:00 8.3 10 Nordeste 22 Nordeste 0 -- -- 86
2019-12-06 09:00:00 6.7 18 Nordeste 24 Este 0 -- -- 91
2019-12-06 08:00:00 6.5 17 Nordeste 21 Nordeste 0 -- -- 91
2019-12-06 07:00:00 6.8 17 Nordeste 26 Nordeste 0 -- -- 89
2019-12-06 06:00:00 7.6 18 Nordeste 26 Nordeste 0 -- -- 87
2019-12-06 05:00:00 8.1 18 Nordeste 27 Nordeste 0 -- -- 85
2019-12-06 04:00:00 7.9 18 Nordeste 27 Nordeste 0 -- -- 86
2019-12-06 03:00:00 8 22 Nordeste 30 Nordeste 0 -- -- 84
2019-12-06 02:00:00 8.3 22 Nordeste 31 Nordeste 0 -- -- 83
2019-12-06 01:00:00 8.7 19 Nordeste 30 Nordeste 0 -- -- 81
2019-12-06 00:00:00 8.4 24 Nordeste 30 Nordeste 0 -- -- 81
2019-12-05 23:00:00 9 23 Nordeste 32 Nordeste 0 -- -- 78
2019-12-05 22:00:00 8.9 24 Nordeste 31 Nordeste 0 -- -- 79
2019-12-05 21:00:00 9.3 23 Nordeste 34 Nordeste 0 -- -- 78
2019-12-05 20:00:00 9.7 22 Nordeste 30 Nordeste 0 -- -- 79
2019-12-05 19:00:00 10.2 18 Nordeste 29 Nordeste 0 -- -- 78
2019-12-05 18:00:00 11.6 16 Nordeste 32 Nordeste 0 -- -- 73
2019-12-05 17:00:00 12.7 21 Nordeste 30 Nordeste 0 -- -- 70
2019-12-05 16:00:00 13.3 21 Nordeste 37 Este 0 -- -- 67
2019-12-05 15:00:00 13.4 28 Este 45 Nordeste 0 -- -- 65
2019-12-05 14:00:00 13.1 35 Nordeste 47 Este 0 -- -- 67
2019-12-05 13:00:00 11.8 25 Nordeste 36 Nordeste 0 -- -- 73
2019-12-05 12:00:00 10 24 Nordeste 41 Nordeste 0 -- -- 73
2019-12-05 11:00:00 8.7 19 Nordeste 28 Nordeste 0 -- -- 76
2019-12-05 10:00:00 7.8 18 Norte 32 Nordeste 0 -- -- 79
2019-12-05 09:00:00 6.8 21 Nordeste 29 Nordeste 0 -- -- 81
2019-12-05 08:00:00 6.3 21 Nordeste 28 Nordeste 0 -- -- 81
2019-12-05 07:00:00 6.6 21 Nordeste 29 Nordeste 0 -- -- 80
2019-12-05 06:00:00 6.2 22 Nordeste 28 Nordeste 0 -- -- 86
2019-12-05 05:00:00 6.4 15 Norte 25 Norte 0 -- -- 87
2019-12-05 04:00:00 6.5 16 Norte 22 Nordeste 0 -- -- 87
2019-12-05 03:00:00 6.3 13 Nordeste 17 Norte 0 -- -- 90
2019-12-05 02:00:00 6.6 14 Norte 19 Nordeste 0 -- -- 88
2019-12-05 01:00:00 7.6 15 Nordeste 26 Nordeste 0 -- -- 84
2019-12-05 00:00:00 7.9 18 Nordeste 22 Nordeste 0 -- -- 83
2019-12-04 23:00:00 7.9 17 Nordeste 22 Nordeste 0 -- -- 82
2019-12-04 22:00:00 8.2 17 Nordeste 22 Nordeste 0 -- -- 82
2019-12-04 21:00:00 8.2 16 Nordeste 21 Nordeste 0 -- -- 81
2019-12-04 20:00:00 9.2 16 Norte 20 Norte 0 -- -- 79
2019-12-04 19:00:00 9.9 13 Nordeste 17 Nordeste 0 -- -- 75
2019-12-04 18:00:00 10.4 12 Nordeste 17 Nordeste 0 -- -- 74
2019-12-04 17:00:00 11 12 Norte 15 Norte 0 -- -- 72
2019-12-04 16:00:00 11.7 16 Nordeste 24 Nordeste 0 -- -- 69
2019-12-04 15:00:00 12.3 15 Nordeste 28 Nordeste 0 -- -- 66
2019-12-04 14:00:00 11.8 15 Norte 22 Norte 0 -- -- 69
2019-12-04 13:00:00 11.2 13 Nordeste 23 Nordeste 0 -- -- 72
2019-12-04 12:00:00 10.1 17 Nordeste 31 Nordeste 0 -- -- 76
2019-12-04 11:00:00 8.9 18 Nordeste 24 Nordeste 0 -- -- 80
2019-12-04 10:00:00 6.7 13 Nordeste 19 Nordeste 0 -- -- 90
2019-12-04 09:00:00 4.1 13 Nordeste 17 Nordeste 0 -- -- 96
2019-12-04 08:00:00 4 8 Nordeste 9 Nordeste 0 -- -- 96
2019-12-04 07:00:00 4.5 7 Nordeste 17 Nordeste 0 -- -- 91
2019-12-04 06:00:00 5.4 13 Nordeste 17 Nordeste 0 -- -- 92
2019-12-04 05:00:00 5.4 8 Nordeste 9 Nordeste 0 -- -- 92
2019-12-04 04:00:00 6.7 9 Este 16 Este 0 -- -- 90
2019-12-04 03:00:00 6.7 13 Este 18 Este 0 -- -- 88
2019-12-04 02:00:00 5.9 14 Nordeste 18 Nordeste 0 -- -- 88
2019-12-04 01:00:00 5.5 14 Nordeste 18 Nordeste 0 -- -- 88
2019-12-04 00:00:00 5.7 13 Nordeste 23 Nordeste 0 -- -- 87
2019-12-03 23:00:00 6.3 18 Nordeste 24 Nordeste 0 -- -- 85
2019-12-03 22:00:00 5.6 18 Nordeste 22 Nordeste 0 -- -- 84
2019-12-03 21:00:00 6.4 17 Nordeste 21 Nordeste 0 -- -- 81
2019-12-03 20:00:00 7.3 16 Nordeste 21 Nordeste 0 -- -- 77
2019-12-03 19:00:00 7.7 12 Nordeste 15 Norte 0 -- -- 79
2019-12-03 18:00:00 9.3 11 Nordeste 22 Nordeste 0 -- -- 74
2019-12-03 17:00:00 11.1 12 Norte 18 Nordeste 0 -- -- 67
2019-12-03 16:00:00 11.6 12 Nordeste 24 Nordeste 0 -- -- 67
2019-12-03 15:00:00 11.3 19 Nordeste 28 Nordeste 0 -- -- 65
2019-12-03 14:00:00 10.6 19 Nordeste 26 Nordeste 0 -- -- 68
2019-12-03 13:00:00 9.8 14 Nordeste 35 Nordeste 0 -- -- 68
2019-12-03 12:00:00 8.3 28 Nordeste 35 Nordeste 0 -- -- 72
2019-12-03 11:00:00 6.8 27 Nordeste 37 Nordeste 0 -- -- 76
2019-12-03 10:00:00 5.3 24 Nordeste 35 Nordeste 0 -- -- 80
2019-12-03 09:00:00 3.9 21 Nordeste 33 Nordeste 0 -- -- 85
2019-12-03 08:00:00 3.6 25 Nordeste 35 Nordeste 0 -- -- 86
2019-12-03 07:00:00 4 27 Nordeste 37 Nordeste 0 -- -- 85
2019-12-03 06:00:00 4.5 27 Nordeste 35 Nordeste 0 -- -- 84
2019-12-03 05:00:00 5 25 Nordeste 34 Nordeste 0 -- -- 83
2019-12-03 04:00:00 5.6 24 Nordeste 33 Nordeste 0 -- -- 83
2019-12-03 03:00:00 5.6 24 Nordeste 35 Nordeste 0 -- -- 84
2019-12-03 02:00:00 6.1 21 Nordeste 33 Nordeste 0 -- -- 83
2019-12-03 01:00:00 6.9 23 Nordeste 35 Nordeste 0 -- -- 82
2019-12-03 00:00:00 7.7 27 Nordeste 38 Nordeste 0 -- -- 80
2019-12-02 23:00:00 8.1 22 Nordeste 34 Nordeste 0 -- -- 79
2019-12-02 22:00:00 8.6 24 Nordeste 33 Nordeste 0 -- -- 78
2019-12-02 21:00:00 9.4 22 Nordeste 31 Nordeste 0 -- -- 74
2019-12-02 20:00:00 10.3 22 Nordeste 32 Nordeste 0 -- -- 68
2019-12-02 19:00:00 10.7 14 Nordeste 24 Nordeste 0 -- -- 70
2019-12-02 18:00:00 11.2 18 Nordeste 32 Nordeste 0 -- -- 70
2019-12-02 17:00:00 12.3 22 Nordeste 40 Este 0 -- -- 64
2019-12-02 16:00:00 12.6 29 Nordeste 49 Este 0 -- -- 64
2019-12-02 15:00:00 11.5 30 Nordeste 44 Este 0 -- -- 66
2019-12-02 14:00:00 12.5 23 Nordeste 40 Nordeste 0 -- -- 68
2019-12-02 13:00:00 11.6 24 Nordeste 40 Nordeste 0 -- -- 71
2019-12-02 12:00:00 10.5 26 Nordeste 44 Nordeste 0 -- -- 74
2019-12-02 11:00:00 9.4 27 Nordeste 39 Nordeste 0 -- -- 77
2019-12-02 10:00:00 7.5 19 Nordeste 30 Nordeste 0 -- -- 85
2019-12-02 09:00:00 7.1 18 Nordeste 30 Nordeste 0 -- -- 88
2019-12-02 08:00:00 7 15 Nordeste 28 Nordeste 0 -- -- 90
2019-12-02 07:00:00 8 17 Nordeste 23 Norte 0 -- -- 89
2019-12-02 06:00:00 8 15 Nordeste 32 Nordeste 0 -- -- 91
2019-12-02 05:00:00 8.2 26 Nordeste 46 Nordeste 0 -- -- 88
2019-12-02 04:00:00 7.9 19 Nordeste 34 Nordeste 0 -- -- 95
2019-12-02 03:00:00 7.4 14 Nordeste 24 Nordeste 0.2 -- -- 96
2019-12-02 02:00:00 7.8 17 Nordeste 32 Nordeste 0.2 -- -- 93
2019-12-02 01:00:00 7.6 19 Nordeste 26 Nordeste 0 -- -- 94
2019-12-02 00:00:00 6.1 8 Norte 16 Norte 0 -- -- 99
2019-12-01 23:00:00 6.8 13 Norte 19 Norte 0 -- -- 99
2019-12-01 22:00:00 6.9 14 Norte 17 Norte 0 -- -- 100
2019-12-01 21:00:00 7.4 12 Norte 15 Nordeste 0 -- -- 99
2019-12-01 20:00:00 7.6 10 Nordeste 13 Nordeste 0 -- -- 97
2019-12-01 19:00:00 8.4 10 Nordeste 13 Nordeste 0 -- -- 97
2019-12-01 18:00:00 9.4 8 Nordeste 13 Nordeste 0 -- -- 96
2019-12-01 17:00:00 9.7 10 Este 15 Nordeste 0 -- -- 95
2019-12-01 16:00:00 10.2 5 Nordeste 8 Nordeste 1.6 -- -- 93
2019-12-01 15:00:00 11 5 Oeste 20 Oeste 1 -- -- 93
2019-12-01 14:00:00 11.3 15 Oeste 29 Oeste 0.2 -- -- 87
2019-12-01 13:00:00 12.3 18 Oeste 28 Oeste 0 -- -- 83
2019-12-01 12:00:00 12 22 Oeste 33 Oeste 0 -- -- 87
2019-12-01 11:00:00 10.9 24 Oeste 33 Oeste 0 -- -- 96
2019-12-01 10:00:00 9.7 16 Sudoeste 24 Sudoeste 0 -- -- 100
2019-12-01 09:00:00 9.5 15 Sudoeste 27 Sur 3.4 -- -- 100
2019-12-01 08:00:00 9.4 22 Sur 29 Sur 0 -- -- 100
2019-12-01 07:00:00 9.2 16 Sudoeste 24 Sudoeste 0 -- -- 100
2019-12-01 06:00:00 9.1 19 Sudoeste 26 Sudoeste 0.2 -- -- 100
2019-12-01 05:00:00 8.8 16 Sur 25 Sur 0 -- -- 100
2019-12-01 04:00:00 8.5 18 Sur 22 Sur 0 -- -- 100
2019-12-01 03:00:00 7.9 14 Sudoeste 18 Sudoeste 0 -- -- 99
2019-12-01 02:00:00 7.7 13 Sur 21 Sudoeste 0 -- -- 99
2019-12-01 01:00:00 7.8 13 Sudoeste 18 Sudoeste 0 -- -- 99
2019-12-01 00:00:00 8.4 13 Sudoeste 22 Oeste 0 -- -- 98
2019-11-30 23:00:00 8.8 17 Sudoeste 23 Oeste 0 -- -- 99
2019-11-30 22:00:00 9.6 17 Oeste 27 Oeste 0 -- -- 97
2019-11-30 21:00:00 10 18 Oeste 27 Oeste 0 -- -- 99
2019-11-30 20:00:00 10.9 16 Oeste 24 Oeste 0 -- -- 99
2019-11-30 19:00:00 11.5 18 Oeste 35 Oeste 0.2 -- -- 98
2019-11-30 18:00:00 11.9 24 Oeste 38 Oeste 1.2 -- -- 99
2019-11-30 17:00:00 13.7 23 Sudoeste 31 Sur 0 -- -- 99
2019-11-30 16:00:00 13.8 19 Sudoeste 46 Sudoeste 0.6 -- -- 99
2019-11-30 15:00:00 14 26 Sudoeste 33 Sudoeste 0 -- -- 97
2019-11-30 14:00:00 13.8 29 Sudoeste 39 Sudoeste 0.2 -- -- 96
2019-11-30 13:00:00 13.1 23 Sur 40 Sur 0 -- -- 98
2019-11-30 12:00:00 13.5 32 Sudoeste 42 Sudoeste 0 -- -- 94
2019-11-30 11:00:00 13 26 Sur 34 Sur 0 -- -- 98
2019-11-30 10:00:00 12.3 18 Sur 23 Sur 0 -- -- 99
2019-11-30 09:00:00 11.6 18 Sur 22 Sur 0 -- -- 98
2019-11-30 08:00:00 11.4 12 Sur 18 Sur 0 -- -- 99
2019-11-30 07:00:00 11.6 10 Sur 16 Sur 0 -- -- 97
2019-11-30 06:00:00 11.8 9 Sur 13 Sudoeste 0 -- -- 95
2019-11-30 05:00:00 12.1 12 Sudoeste 13 Sudoeste 0 -- -- 97
2019-11-30 04:00:00 12.2 8 Sudoeste 13 Oeste 0 -- -- 97
2019-11-30 03:00:00 12.1 9 Sudoeste 11 Sudoeste 0 -- -- 99
2019-11-30 02:00:00 12.5 8 Sudoeste 9 Sudoeste 0 -- -- 99
2019-11-30 01:00:00 12.4 8 Sur 16 Sudoeste 0 -- -- 98
2019-11-30 00:00:00 13 11 Sudoeste 18 Sudoeste 0 -- -- 99
2019-11-29 23:00:00 13.3 14 Sudoeste 18 Sudoeste 0 -- -- 99
2019-11-29 22:00:00 13.4 9 Sur 12 Sudoeste 0 -- -- 98
2019-11-29 21:00:00 13.6 10 Sur 15 Sur 0 -- -- 98
2019-11-29 20:00:00 13.6 9 Sur 13 Sur 0 -- -- 98
2019-11-29 19:00:00 13.6 10 Sur 19 Sur 0 -- -- 96
2019-11-29 18:00:00 14.9 14 Sur 19 Sur 0 -- -- 93
2019-11-29 17:00:00 15.6 7 Sudoeste 20 Sudoeste 0 -- -- 88
2019-11-29 16:00:00 16 13 Sudoeste 21 Sudoeste 0 -- -- 89
2019-11-29 15:00:00 15.9 16 Sudoeste 25 Sudoeste 0 -- -- 86
2019-11-29 14:00:00 15.5 10 Sudoeste 20 Sudoeste 0 -- -- 90
2019-11-29 13:00:00 15.2 14 Sur 21 Sur 0 -- -- 93
2019-11-29 12:00:00 14.1 15 Sur 19 Sur 0 -- -- 98
2019-11-29 11:00:00 13.5 16 Sur 22 Sur 0 -- -- 100
2019-11-29 10:00:00 13 18 Sur 22 Sur 0 -- -- 100
2019-11-29 09:00:00 12.5 17 Sur 22 Sur 0 -- -- 100
2019-11-29 08:00:00 12.4 17 Sudoeste 22 Sudoeste 0 -- -- 100
2019-11-29 07:00:00 12.5 18 Sudoeste 22 Sudoeste 0 -- -- 100
2019-11-29 06:00:00 12.5 15 Sur 22 Sudoeste 0 -- -- 100
2019-11-29 05:00:00 12.5 11 Sur 24 Sur 0 -- -- 99
2019-11-29 04:00:00 12.5 18 Sudoeste 23 Sur 0 -- -- 99
2019-11-29 03:00:00 12.7 16 Sudoeste 22 Sudoeste 0 -- -- 99
2019-11-29 02:00:00 12.7 15 Sudoeste 26 Sudoeste 0 -- -- 99
2019-11-29 01:00:00 12.7 18 Sudoeste 28 Sudoeste 0 -- -- 99
2019-11-29 00:00:00 12.5 19 Sudoeste 23 Sudoeste 0 -- -- 99
2019-11-28 23:00:00 12.8 17 Sudoeste 22 Sudoeste 0.2 -- -- 99
2019-11-28 22:00:00 12.8 18 Sudoeste 24 Sudoeste 0 -- -- 98
2019-11-28 21:00:00 12.7 14 Sur 20 Sudoeste 0 -- -- 97
2019-11-28 20:00:00 12.8 12 Sudoeste 16 Sudoeste 0 -- -- 95
2019-11-28 19:00:00 13.4 11 Sudoeste 21 Sudoeste 0 -- -- 92
2019-11-28 18:00:00 13.7 17 Sudoeste 23 Sudoeste 0 -- -- 91
2019-11-28 17:00:00 14.5 13 Sudoeste 27 Sudoeste 0 -- -- 85
2019-11-28 16:00:00 14.7 20 Sudoeste 33 Sudoeste 0 -- -- 89
2019-11-28 15:00:00 14.2 23 Sudoeste 32 Sur 0 -- -- 93
2019-11-28 14:00:00 13.1 18 Sudoeste 31 Sur 0.2 -- -- 97
2019-11-28 13:00:00 12.4 26 Sur 34 Sur 0 -- -- 99
2019-11-28 12:00:00 11.7 21 Sudoeste 30 Sur 0 -- -- 100
2019-11-28 11:00:00 11.1 20 Sur 25 Sur 0 -- -- 100
2019-11-28 10:00:00 10.3 16 Sur 22 Sur 0 -- -- 100
2019-11-28 09:00:00 10 18 Sur 26 Sur 0 -- -- 100
2019-11-28 08:00:00 10.2 19 Sur 26 Sur 0 -- -- 99
2019-11-28 07:00:00 10 12 Sur 17 Sur 0 -- -- 99
2019-11-28 06:00:00 9.8 7 Sur 11 Sur 0 -- -- 99
2019-11-28 05:00:00 9.5 9 Sur 12 Sur 0 -- -- 99
2019-11-28 04:00:00 9.1 11 Sudoeste 19 Sudoeste 0 -- -- 96
2019-11-28 03:00:00 9.2 16 Sudoeste 20 Sudoeste 0 -- -- 96
2019-11-28 02:00:00 9.1 10 Sudoeste 13 Sur 0 -- -- 95
2019-11-28 01:00:00 8.9 7 Sur 20 Sudoeste 0 -- -- 97
2019-11-28 00:00:00 9.8 17 Sudoeste 22 Sudoeste 0 -- -- 95
2019-11-27 23:00:00 10 11 Sudoeste 19 Sudoeste 0 -- -- 94
2019-11-27 22:00:00 10.2 14 Sudoeste 21 Sudoeste 0 -- -- 93
2019-11-27 21:00:00 10.5 14 Sudoeste 18 Sudoeste 0 -- -- 90
2019-11-27 20:00:00 11.1 13 Sudoeste 20 Sudoeste 0 -- -- 89
2019-11-27 19:00:00 12.2 16 Oeste 23 Oeste 0 -- -- 83
2019-11-27 18:00:00 12.7 15 Sudoeste 22 Sudoeste 0 -- -- 84
2019-11-27 17:00:00 13.2 21 Sudoeste 30 Oeste 0 -- -- 78
2019-11-27 16:00:00 13.9 24 Oeste 36 Oeste 0 -- -- 74
2019-11-27 15:00:00 14 24 Oeste 37 Oeste 0 -- -- 76
2019-11-27 14:00:00 14.5 26 Oeste 34 Oeste 0 -- -- 73
2019-11-27 06:00:00 -- -- -- -- -- -- -- -- --
2019-11-27 05:00:00 -- -- -- -- -- -- -- -- --
2019-11-27 04:00:00 -- -- -- -- -- -- -- -- --
2019-11-27 03:00:00 10.9 22 Oeste 33 Oeste 0.2 -- -- 96
2019-11-27 02:00:00 11.4 23 Oeste 36 Oeste 0.2 -- -- 97
2019-11-27 01:00:00 12.1 23 Oeste 32 Oeste 0.2 -- -- 98
2019-11-27 00:00:00 12.3 19 Sudoeste 42 Oeste 0.8 -- -- 99
2019-11-26 23:00:00 12.4 20 Oeste 31 Oeste 0.8 -- -- 96
2019-11-26 22:00:00 12.6 19 Sudoeste 27 Sudoeste 0 -- -- 93
2019-11-26 21:00:00 12.8 22 Sudoeste 30 Sudoeste 0 -- -- 93
2019-11-26 20:00:00 13.3 14 Sudoeste 29 Sudoeste 0 -- -- 96
2019-11-26 19:00:00 13.3 16 Sudoeste 33 Sudoeste 0 -- -- 98
2019-11-26 18:00:00 14.3 28 Sudoeste 44 Sudoeste 0.2 -- -- 98
2019-11-26 17:00:00 14.6 35 Sudoeste 48 Sur 0 -- -- 96
2019-11-26 16:00:00 14.8 36 Sur 46 Sudoeste 0.2 -- -- 96
2019-11-26 15:00:00 14.6 34 Sudoeste 49 Sudoeste 1.6 -- -- 96
2019-11-26 14:00:00 14.7 35 Sudoeste 47 Sudoeste 2.8 -- -- 94
2019-11-26 13:00:00 14.5 29 Sudoeste 37 Sudoeste 2 -- -- 98
2019-11-26 12:00:00 14.6 30 Sur 36 Sur 0 -- -- 99
2019-11-26 11:00:00 14 23 Sur 30 Sur 0.6 -- -- 100
2019-11-26 10:00:00 13.8 24 Sur 32 Sur 0 -- -- 100
2019-11-26 09:00:00 13.2 23 Sur 29 Sur 0 -- -- 100
2019-11-26 08:00:00 12.8 16 Sur 27 Sur 0 -- -- 100
2019-11-26 07:00:00 12.8 19 Sur 27 Sur 0 -- -- 100
2019-11-26 06:00:00 12.8 21 Sur 27 Sur 0 -- -- 100
2019-11-26 05:00:00 12.2 14 Sur 22 Sur 0.6 -- -- 100
2019-11-26 04:00:00 11.9 17 Sur 22 Sur 0.4 -- -- 99
2019-11-26 03:00:00 11.7 7 Sur 15 Sur 0 -- -- 97
2019-11-26 02:00:00 11.3 10 Sur 13 Sur 0 -- -- 97
2019-11-26 01:00:00 10.8 9 Sur 15 Sudoeste 0 -- -- 96
2019-11-26 00:00:00 11.9 14 Sudoeste 20 Oeste 0 -- -- 94
2019-11-25 23:00:00 12.3 15 Sudoeste 19 Sudoeste 0 -- -- 94
2019-11-25 22:00:00 12.9 17 Oeste 23 Oeste 0 -- -- 92
2019-11-25 21:00:00 13.4 14 Oeste 19 Oeste 0 -- -- 90
2019-11-25 20:00:00 14.2 15 Oeste 22 Oeste 0 -- -- 87
2019-11-25 19:00:00 14.2 19 Oeste 24 Oeste 0 -- -- 87
2019-11-25 18:00:00 14.6 20 Oeste 24 Oeste 0 -- -- 85
2019-11-25 17:00:00 15.4 15 Oeste 26 Oeste 0 -- -- 83
2019-11-25 16:00:00 15.9 19 Oeste 29 Oeste 0 -- -- 83
2019-11-25 15:00:00 16.4 22 Oeste 36 Oeste 0 -- -- 79
2019-11-25 14:00:00 15.2 24 Oeste 35 Oeste 0 -- -- 87
2019-11-25 13:00:00 15.5 23 Oeste 35 Oeste 0 -- -- 88
2019-11-25 12:00:00 15.6 26 Oeste 35 Oeste 0 -- -- 87
2019-11-25 11:00:00 14 14 Sudoeste 21 Oeste 0 -- -- 100
2019-11-25 10:00:00 13.4 10 Sudoeste 16 Sudoeste 0.2 -- -- 100
2019-11-25 09:00:00 13 9 Sudoeste 12 Sudoeste 0 -- -- 100
2019-11-25 08:00:00 12.6 7 Sur 17 Sudoeste 0 -- -- 100
2019-11-25 07:00:00 12.2 8 Sur 11 Sur 0 -- -- 100
2019-11-25 06:00:00 12.1 9 Sur 14 Sur 0.4 -- -- 100
2019-11-25 05:00:00 11.9 9 Sur 18 Sudoeste 0.4 -- -- 100
2019-11-25 04:00:00 11.8 19 Sudoeste 29 Sur 1 -- -- 100
2019-11-25 03:00:00 11.5 24 Sur 33 Sudoeste 0.8 -- -- 100
2019-11-25 02:00:00 11.6 24 Sur 33 Sur 0.2 -- -- 99
2019-11-25 01:00:00 11.6 28 Sudoeste 37 Sur 0 -- -- 99
2019-11-25 00:00:00 11.5 24 Sur 33 Sur 0.2 -- -- 98
2019-11-24 23:00:00 11.6 22 Sur 30 Sur 0 -- -- 96
2019-11-24 22:00:00 11.5 20 Sur 30 Sur 0 -- -- 93
2019-11-24 21:00:00 11.6 22 Sur 30 Sur 0 -- -- 89
2019-11-24 20:00:00 11.6 15 Sur 21 Sur 0 -- -- 89
2019-11-24 19:00:00 11.7 12 Sur 16 Sur 0 -- -- 89
2019-11-24 18:00:00 12 12 Sudoeste 21 Sudoeste 0 -- -- 86
2019-11-24 17:00:00 12.4 15 Sudoeste 24 Sudoeste 0 -- -- 81
2019-11-24 16:00:00 12.7 21 Oeste 32 Oeste 0 -- -- 78
2019-11-24 15:00:00 13 18 Oeste 27 Oeste 0 -- -- 75
2019-11-24 14:00:00 12.9 16 Oeste 26 Oeste 0 -- -- 75
2019-11-24 13:00:00 12.1 16 Oeste 26 Oeste 0 -- -- 82
2019-11-24 12:00:00 11 10 Oeste 16 Oeste 0 -- -- 88
2019-11-24 11:00:00 9.1 5 Sur 14 Oeste 0 -- -- 94
2019-11-24 10:00:00 7.4 4 Sudoeste 9 Sudoeste 0 -- -- 100
2019-11-24 09:00:00 6.2 5 Sudoeste 9 Oeste 0 -- -- 99
2019-11-24 08:00:00 5.9 4 Oeste 8 Sudoeste 0 -- -- 99
2019-11-24 07:00:00 5.7 7 Sudoeste 10 Sudoeste 0 -- -- 98
2019-11-24 06:00:00 5.5 5 Sudoeste 12 Oeste 0 -- -- 97
2019-11-24 05:00:00 5.6 12 Oeste 18 Noroeste 0 -- -- 97
2019-11-24 04:00:00 5.8 13 Noroeste 16 Noroeste 0 -- -- 96
2019-11-24 03:00:00 5.9 9 Noroeste 17 Noroeste 0 -- -- 94
2019-11-24 02:00:00 6.3 10 Noroeste 17 Oeste 0 -- -- 92
2019-11-24 01:00:00 6.3 11 Oeste 18 Noroeste 0 -- -- 91
2019-11-24 00:00:00 7.1 15 Oeste 32 Noroeste 0 -- -- 89
2019-11-23 23:00:00 7.5 21 Noroeste 30 Oeste 0 -- -- 87
2019-11-23 22:00:00 7.4 13 Noroeste 24 Oeste 0 -- -- 87
2019-11-23 21:00:00 8 17 Noroeste 24 Oeste 0 -- -- 84
2019-11-23 20:00:00 8.4 18 Oeste 27 Oeste 0 -- -- 82
2019-11-23 19:00:00 9.3 16 Oeste 23 Oeste 0 -- -- 76
2019-11-23 18:00:00 10.6 17 Noroeste 30 Noroeste 0 -- -- 70
2019-11-23 17:00:00 12 20 Noroeste 37 Noroeste 0 -- -- 64
2019-11-23 16:00:00 13.4 26 Noroeste 34 Oeste 0 -- -- 60
2019-11-23 15:00:00 13 23 Noroeste 38 Noroeste 0 -- -- 64
2019-11-23 14:00:00 13 24 Oeste 36 Noroeste 0 -- -- 64
2019-11-23 13:00:00 12.5 25 Noroeste 35 Noroeste 0 -- -- 65
2019-11-23 12:00:00 11.6 23 Noroeste 32 Noroeste 0 -- -- 68
2019-11-23 11:00:00 10.2 24 Noroeste 31 Noroeste 0 -- -- 76
2019-11-23 10:00:00 8.8 23 Oeste 33 Oeste 0 -- -- 83
2019-11-23 09:00:00 7.3 27 Noroeste 39 Oeste 0 -- -- 87
2019-11-23 08:00:00 7 32 Oeste 40 Noroeste 0 -- -- 89
2019-11-23 07:00:00 7.3 35 Noroeste 49 Oeste 0 -- -- 87
2019-11-23 06:00:00 7.5 39 Noroeste 48 Oeste 0 -- -- 87
2019-11-23 05:00:00 7.6 23 Oeste 37 Oeste 0 -- -- 92
2019-11-23 04:00:00 7.9 27 Oeste 42 Oeste 0 -- -- 93
2019-11-23 03:00:00 8 36 Oeste 50 Oeste 0.2 -- -- 87
2019-11-23 02:00:00 8.8 35 Oeste 50 Oeste 0 -- -- 88
2019-11-23 01:00:00 9.4 34 Oeste 66 Oeste 0 -- -- 90
2019-11-23 00:00:00 9.7 36 Oeste 54 Oeste 1.2 -- -- 92
2019-11-22 23:00:00 10.4 36 Oeste 60 Oeste 0 -- -- 92
2019-11-22 22:00:00 10.4 37 Oeste 58 Oeste 0 -- -- 94
2019-11-22 21:00:00 10.7 39 Oeste 52 Oeste 0 -- -- 88
2019-11-22 20:00:00 10.8 38 Oeste 52 Oeste 0 -- -- 84
2019-11-22 19:00:00 10.8 39 Oeste 72 Oeste 0 -- -- 86
2019-11-22 18:00:00 13 44 Oeste 71 Oeste 0 -- -- 76
2019-11-22 17:00:00 14.2 38 Oeste 57 Oeste 0 -- -- 71
2019-11-22 16:00:00 14.8 39 Oeste 64 Oeste 0 -- -- 74
2019-11-22 15:00:00 15.4 41 Oeste 64 Oeste 0.2 -- -- 67
2019-11-22 14:00:00 15.2 30 Oeste 46 Oeste 0 -- -- 88
2019-11-22 13:00:00 13.4 28 Oeste 45 Oeste 1 -- -- 100
2019-11-22 12:00:00 13.2 32 Sur 54 Sur 0.2 -- -- 100
2019-11-22 11:00:00 11.9 39 Sur 53 Sur 5 -- -- 100
2019-11-22 10:00:00 11.2 39 Sur 55 Sur 5.8 -- -- 100
2019-11-22 09:00:00 10.8 34 Sur 47 Sur 1.8 -- -- 100
2019-11-22 08:00:00 10.7 34 Sur 50 Sur 1 -- -- 100
2019-11-22 07:00:00 10.4 31 Sur 45 Sur 1 -- -- 100
2019-11-22 06:00:00 10.3 32 Sur 40 Sur 1.4 -- -- 100
2019-11-22 05:00:00 9.7 23 Sur 31 Sur 0.6 -- -- 100
2019-11-22 04:00:00 9.7 21 Sur 28 Sur 0.4 -- -- 100
2019-11-22 03:00:00 9.9 17 Sur 23 Sur 0.4 -- -- 100
2019-11-22 02:00:00 9.8 13 Sur 21 Sur 0 -- -- 100
2019-11-22 01:00:00 9.7 15 Sur 18 Sur 0 -- -- 99
2019-11-22 00:00:00 9.7 10 Sudeste 16 Sudeste 0 -- -- 99
2019-11-21 23:00:00 9.6 8 Sur 12 Sur 0 -- -- 98
2019-11-21 22:00:00 9.5 8 Sudeste 11 Sudeste 0 -- -- 98
2019-11-21 21:00:00 9.8 8 Sur 11 Sur 0 -- -- 96
2019-11-21 20:00:00 10.1 10 Sur 14 Sur 0 -- -- 94
2019-11-21 19:00:00 10.3 5 Sur 9 Sur 0 -- -- 92
2019-11-21 18:00:00 10.9 8 Sur 19 Sur 0 -- -- 92
2019-11-21 17:00:00 12.5 11 Sur 16 Sur 0 -- -- 84
2019-11-21 16:00:00 12.1 14 Sur 21 Sur 0 -- -- 82
2019-11-21 15:00:00 12.5 7 Oeste 14 Sur 0 -- -- 84
2019-11-21 14:00:00 12.5 9 Sudoeste 15 Sudoeste 0 -- -- 88
2019-11-21 13:00:00 11.4 4 Sudoeste 12 Oeste 0 -- -- 92
2019-11-21 12:00:00 10.8 9 Sudoeste 16 Sudoeste 0 -- -- 100
2019-11-21 11:00:00 10.2 12 Sudoeste 16 Sudoeste 0 -- -- 100
2019-11-21 10:00:00 9.6 10 Sur 17 Sur 0 -- -- 100
2019-11-21 09:00:00 9 14 Sur 18 Sur 0.6 -- -- 100
2019-11-21 08:00:00 9 11 Sur 17 Sur 0.2 -- -- 100
2019-11-21 07:00:00 8.9 14 Sur 21 Sur 0.2 -- -- 100
2019-11-21 06:00:00 8.8 17 Sur 23 Sur 1 -- -- 100
2019-11-21 05:00:00 8.8 15 Sur 19 Sur 0 -- -- 100
2019-11-21 04:00:00 8.4 13 Sur 18 Sur 0 -- -- 100
2019-11-21 03:00:00 8.3 10 Sur 17 Sur 0 -- -- 100
2019-11-21 02:00:00 8.3 13 Sur 20 Sur 0.2 -- -- 100
2019-11-21 01:00:00 8.4 12 Sur 16 Sur 0 -- -- 100
2019-11-21 00:00:00 8.5 13 Sur 17 Sur 0 -- -- 100
2019-11-20 23:00:00 7.9 9 Sudeste 16 Sudeste 0 -- -- 100
2019-11-20 22:00:00 7.7 7 Este 11 Este 0.2 -- -- 99
2019-11-20 21:00:00 8.1 5 Sudeste 10 Este 0.2 -- -- 99
2019-11-20 20:00:00 8.3 3 Sudeste 8 Sudeste 0 -- -- 99
2019-11-20 19:00:00 8.4 4 Sudeste 6 Sur 0 -- -- 99
2019-11-20 18:00:00 8.7 4 Sur 12 Sur 0 -- -- 98
2019-11-20 17:00:00 8.6 9 Sur 20 Sudoeste 0 -- -- 99
2019-11-20 16:00:00 8.1 13 Sur 19 Sur 0.2 -- -- 99
2019-11-20 15:00:00 7.6 18 Sur 27 Sudeste 0.4 -- -- 99
2019-11-20 14:00:00 7.7 19 Sudeste 25 Sudeste 0 -- -- 99
2019-11-20 13:00:00 7.7 15 Sudeste 23 Sudeste 1.4 -- -- 98
2019-11-20 12:00:00 7.3 6 Este 11 Sudeste 1 -- -- 98
2019-11-20 11:00:00 7 9 Sudeste 22 Sudeste 0.2 -- -- 98
2019-11-20 10:00:00 6.9 15 Sudeste 23 Sudeste 0 -- -- 99
2019-11-20 09:00:00 6.7 17 Sudeste 22 Sudeste 0.8 -- -- 99
2019-11-20 08:00:00 6.7 12 Sudeste 22 Sudeste 1.6 -- -- 99
2019-11-20 07:00:00 6.7 13 Sudeste 18 Sudeste 5 -- -- 98
2019-11-20 06:00:00 6.7 10 Sudeste 15 Sudeste 3.4 -- -- 98
2019-11-20 05:00:00 6.8 8 Sudeste 15 Sur 1.8 -- -- 97
2019-11-20 04:00:00 7.3 13 Sur 18 Sur 0.2 -- -- 92
2019-11-20 03:00:00 7.5 12 Sudeste 21 Sudeste 0 -- -- 89
2019-11-20 02:00:00 7.6 9 Sudeste 14 Sur 0.2 -- -- 93
2019-11-20 01:00:00 7.9 9 Sudeste 15 Sudeste 0 -- -- 89
2019-11-20 00:00:00 8.1 9 Sudeste 12 Sudeste 0 -- -- 89
2019-11-19 23:00:00 8.2 5 Sudeste 12 Sur 0 -- -- 87
2019-11-19 22:00:00 8.3 8 Sur 11 Sur 0 -- -- 89
2019-11-19 21:00:00 8.3 6 Sur 9 Sudeste 0 -- -- 88
2019-11-19 20:00:00 8.4 7 Sur 11 Sur 0 -- -- 84
2019-11-19 19:00:00 8.7 7 Sur 10 Sudoeste 0 -- -- 80
2019-11-19 18:00:00 9.8 9 Sudoeste 16 Sur 0 -- -- 77
2019-11-19 17:00:00 10.6 13 Sur 16 Sur 0 -- -- 69
2019-11-19 16:00:00 10.6 6 Sur 10 Sur 0 -- -- 69
2019-11-19 15:00:00 10.5 5 Sudeste 12 Sur 0 -- -- 70
2019-11-19 14:00:00 9.9 4 Sur 13 Sur 0 -- -- 72
2019-11-19 13:00:00 9.2 6 Sudeste 12 Sur 0 -- -- 73
2019-11-19 12:00:00 7.9 5 Sur 9 Sudeste 0 -- -- 81
2019-11-19 11:00:00 6.8 4 Sudeste 6 Sudeste 0 -- -- 82
2019-11-19 10:00:00 5.4 5 Sudeste 7 Sudeste 0 -- -- 84
2019-11-19 09:00:00 4.3 6 Sudeste 8 Este 0 -- -- 85
2019-11-19 08:00:00 4 5 Este 12 Nordeste 0 -- -- 85
2019-11-19 07:00:00 4.5 10 Nordeste 13 Este 0 -- -- 83
2019-11-19 06:00:00 4.6 13 Nordeste 14 Nordeste 0 -- -- 84
2019-11-19 05:00:00 4.7 8 Norte 10 Norte 0 -- -- 85
2019-11-19 04:00:00 5 8 Norte 10 Norte 0 -- -- 84
2019-11-19 03:00:00 5.3 9 Norte 11 Norte 0 -- -- 82
2019-11-19 02:00:00 5.6 7 Noroeste 13 Noroeste 0 -- -- 80
2019-11-19 01:00:00 5.9 10 Nordeste 14 Nordeste 0 -- -- 78
2019-11-19 00:00:00 7.2 11 Norte 14 Nordeste 0 -- -- 72
2019-11-18 23:00:00 7.4 10 Nordeste 16 Nordeste 0 -- -- 72
2019-11-18 22:00:00 7.4 13 Norte 15 Norte 0 -- -- 72
2019-11-18 21:00:00 8 10 Nordeste 19 Nordeste 0 -- -- 70
2019-11-18 20:00:00 8.7 13 Nordeste 20 Norte 0 -- -- 67
2019-11-18 19:00:00 10 9 Nordeste 12 Nordeste 0 -- -- 61
2019-11-18 18:00:00 11.2 8 Norte 18 Norte 0 -- -- 61
2019-11-18 17:00:00 12.8 13 Norte 21 Norte 0 -- -- 55
2019-11-18 16:00:00 13.2 14 Noroeste 23 Norte 0 -- -- 53
2019-11-18 15:00:00 12.9 13 Norte 22 Norte 0 -- -- 58
2019-11-18 14:00:00 12 12 Norte 21 Norte 0 -- -- 62
2019-11-18 13:00:00 11 12 Noroeste 18 Norte 0 -- -- 69
2019-11-18 12:00:00 9.8 14 Noroeste 21 Norte 0 -- -- 73
2019-11-18 11:00:00 8.5 14 Norte 21 Norte 0 -- -- 78
2019-11-18 10:00:00 6.6 14 Noroeste 17 Noroeste 0 -- -- 88
2019-11-18 09:00:00 4.6 10 Norte 19 Norte 0 -- -- 91
2019-11-18 08:00:00 4.8 15 Norte 25 Noroeste 0 -- -- 88
2019-11-18 07:00:00 3.8 19 Noroeste 21 Noroeste 0 -- -- 93
2019-11-18 06:00:00 4.3 14 Noroeste 20 Noroeste 0 -- -- 90
2019-11-18 05:00:00 4.6 18 Noroeste 22 Noroeste 0 -- -- 90
2019-11-18 04:00:00 4.3 18 Noroeste 24 Noroeste 0 -- -- 90
2019-11-18 03:00:00 5.3 21 Noroeste 29 Noroeste 0 -- -- 88
2019-11-18 02:00:00 5.6 21 Norte 24 Norte 0 -- -- 89
2019-11-18 01:00:00 6.2 17 Norte 32 Noroeste 0 -- -- 87
2019-11-18 00:00:00 6.9 15 Noroeste 26 Noroeste 0 -- -- 89
2019-11-17 23:00:00 8.4 17 Noroeste 24 Noroeste 0 -- -- 98
2019-11-17 22:00:00 9.5 16 Noroeste 30 Norte 0 -- -- 100
2019-11-17 21:00:00 10.6 24 Norte 38 Oeste 0.2 -- -- 99
2019-11-17 20:00:00 11.9 26 Oeste 36 Oeste 0.4 -- -- 99
2019-11-17 19:00:00 12.1 23 Oeste 31 Oeste 0.2 -- -- 99
2019-11-17 18:00:00 12.1 16 Oeste 23 Oeste 0.2 -- -- 98
2019-11-17 17:00:00 12 11 Oeste 16 Oeste 2.2 -- -- 99
2019-11-17 16:00:00 11.9 9 Noroeste 24 Oeste 0.6 -- -- 96
2019-11-17 15:00:00 11.9 14 Oeste 25 Oeste 0 -- -- 98
2019-11-17 14:00:00 10 11 Oeste 18 Oeste 0 -- -- 99
2019-11-17 13:00:00 9.5 12 Sudoeste 17 Sudoeste 0 -- -- 100
2019-11-17 12:00:00 8.8 7 Sudoeste 10 Sudoeste 0 -- -- 100
2019-11-17 11:00:00 7.9 5 Sudoeste 14 Sudoeste 0 -- -- 100
2019-11-17 10:00:00 7.1 11 Sur 14 Sur 0 -- -- 100
2019-11-17 09:00:00 6.8 8 Sudeste 13 Sur 1.2 -- -- 99
2019-11-17 08:00:00 6.5 11 Sur 17 Sur 0.2 -- -- 99
2019-11-17 07:00:00 6.3 13 Sur 17 Sur 0.8 -- -- 99
2019-11-17 06:00:00 6.5 11 Sur 15 Sur 0.6 -- -- 98
2019-11-17 05:00:00 6.4 7 Sudoeste 10 Sudoeste 0.2 -- -- 97
2019-11-17 04:00:00 6 8 Sudoeste 13 Sudoeste 0 -- -- 89
2019-11-17 03:00:00 5.9 6 Sudoeste 10 Oeste 0 -- -- 84
2019-11-17 02:00:00 5.9 5 Sudoeste 16 Noroeste 0 -- -- 81
2019-11-17 01:00:00 6 13 Noroeste 17 Oeste 0 -- -- 82
2019-11-17 00:00:00 5.9 12 Noroeste 19 Noroeste 0 -- -- 80
2019-11-16 23:00:00 5.5 15 Noroeste 20 Noroeste 0 -- -- 77
2019-11-16 22:00:00 5.4 13 Oeste 16 Noroeste 0 -- -- 75
2019-11-16 21:00:00 7.4 13 Noroeste 24 Noroeste 0 -- -- 68
2019-11-16 20:00:00 7.8 16 Noroeste 22 Noroeste 0 -- -- 64
2019-11-16 19:00:00 8.2 8 Noroeste 15 Noroeste 0 -- -- 63
2019-11-16 18:00:00 9.4 12 Noroeste 26 Oeste 0 -- -- 58
2019-11-16 17:00:00 11.7 19 Noroeste 27 Noroeste 0 -- -- 46
2019-11-16 16:00:00 10.5 18 Noroeste 30 Noroeste 0 -- -- 55
2019-11-16 15:00:00 11.2 18 Noroeste 28 Noroeste 0 -- -- 50
2019-11-16 14:00:00 11.5 15 Noroeste 24 Noroeste 0 -- -- 50
2019-11-16 13:00:00 10.1 11 Noroeste 21 Noroeste 0 -- -- 56
2019-11-16 12:00:00 8.8 15 Noroeste 23 Noroeste 0 -- -- 61
2019-11-16 11:00:00 7.1 18 Noroeste 23 Noroeste 0 -- -- 69
2019-11-16 10:00:00 4.7 6 Norte 12 Noroeste 0 -- -- 79
2019-11-16 09:00:00 2 11 Noroeste 14 Oeste 0 -- -- 87
2019-11-16 08:00:00 1.7 3 Noroeste 15 Norte 0 -- -- 85
2019-11-16 07:00:00 2.1 6 Norte 12 Noroeste 0 -- -- 84
2019-11-16 06:00:00 2.2 6 Noroeste 18 Norte 0 -- -- 83
2019-11-16 05:00:00 2.4 5 Norte 21 Norte 0 -- -- 82
2019-11-16 04:00:00 2.7 13 Norte 20 Norte 0 -- -- 82
2019-11-16 03:00:00 2.8 13 Norte 21 Norte 0 -- -- 81
2019-11-16 02:00:00 3.4 16 Noroeste 22 Noroeste 0 -- -- 79
2019-11-16 01:00:00 2.5 16 Noroeste 19 Noroeste 0 -- -- 81
2019-11-16 00:00:00 3.5 10 Noroeste 19 Noroeste 0 -- -- 75
2019-11-15 23:00:00 3.7 16 Noroeste 25 Noroeste 0 -- -- 75
2019-11-15 22:00:00 3.5 19 Noroeste 23 Noroeste 0 -- -- 74
2019-11-15 21:00:00 4.6 14 Noroeste 27 Noroeste 0 -- -- 68
2019-11-15 20:00:00 5.3 17 Noroeste 25 Noroeste 0 -- -- 64
2019-11-15 19:00:00 6.6 19 Noroeste 32 Noroeste 0 -- -- 57
2019-11-15 18:00:00 8.2 20 Noroeste 38 Noroeste 0 -- -- 51
2019-11-15 17:00:00 9.3 27 Norte 44 Norte 0 -- -- 49
2019-11-15 16:00:00 10.1 33 Noroeste 45 Noroeste 0 -- -- 46
2019-11-15 15:00:00 10.9 33 Norte 42 Norte 0 -- -- 47
2019-11-15 14:00:00 10.5 30 Noroeste 41 Noroeste 0 -- -- 48
2019-11-15 13:00:00 10 22 Noroeste 41 Noroeste 0 -- -- 54
2019-11-15 12:00:00 8.7 32 Noroeste 42 Noroeste 0 -- -- 59
2019-11-15 11:00:00 6.8 24 Noroeste 36 Noroeste 0 -- -- 67
2019-11-15 10:00:00 5.8 26 Noroeste 33 Noroeste 0 -- -- 73
2019-11-15 09:00:00 3.1 19 Noroeste 22 Noroeste 0 -- -- 81
2019-11-15 08:00:00 2.2 13 Noroeste 23 Oeste 0 -- -- 83
2019-11-15 07:00:00 1.9 16 Noroeste 22 Noroeste 0 -- -- 86
2019-11-15 06:00:00 3.1 17 Oeste 27 Oeste 0 -- -- 81
2019-11-15 05:00:00 3.1 21 Oeste 24 Noroeste 0 -- -- 84
2019-11-15 04:00:00 3.7 14 Noroeste 21 Noroeste 0 -- -- 84
2019-11-15 03:00:00 4.2 14 Noroeste 20 Noroeste 0 -- -- 84
2019-11-15 02:00:00 5 20 Oeste 32 Noroeste 0 -- -- 79
2019-11-15 01:00:00 5.4 18 Oeste 33 Oeste 0 -- -- 76
2019-11-15 00:00:00 5.8 21 Noroeste 33 Noroeste 0 -- -- 80
2019-11-14 23:00:00 6.3 19 Noroeste 33 Oeste 0 -- -- 80
2019-11-14 22:00:00 6.8 26 Noroeste 36 Oeste 0 -- -- 79
2019-11-14 21:00:00 7.2 21 Noroeste 43 Noroeste 0 -- -- 80
2019-11-14 20:00:00 7.9 35 Noroeste 51 Noroeste 0 -- -- 71
2019-11-14 19:00:00 8.8 30 Noroeste 61 Oeste 0 -- -- 75
2019-11-14 18:00:00 8.5 36 Oeste 77 Oeste 0 -- -- 80
2019-11-14 17:00:00 9.5 40 Oeste 55 Oeste 0 -- -- 75
2019-11-14 16:00:00 9.2 32 Noroeste 63 Noroeste 0 -- -- 75
2019-11-14 15:00:00 11 44 Noroeste 68 Noroeste 0 -- -- 63
2019-11-14 14:00:00 9.9 44 Oeste 59 Noroeste 0 -- -- 65
2019-11-14 13:00:00 9.1 38 Oeste 56 Oeste 0 -- -- 74
2019-11-14 12:00:00 7.1 31 Noroeste 63 Noroeste 0.4 -- -- 89
2019-11-14 11:00:00 9.3 28 Noroeste 38 Noroeste 0 -- -- 77
2019-11-14 10:00:00 8.5 29 Noroeste 47 Noroeste 0.2 -- -- 83
2019-11-14 09:00:00 9 26 Noroeste 45 Noroeste 0 -- -- 84
2019-11-14 08:00:00 9.4 28 Noroeste 37 Noroeste 0 -- -- 86
2019-11-14 07:00:00 9.6 25 Oeste 41 Oeste 0 -- -- 93
2019-11-14 06:00:00 10.1 32 Oeste 48 Oeste 0 -- -- 93
2019-11-14 05:00:00 9.6 26 Oeste 39 Oeste 0 -- -- 95
2019-11-14 04:00:00 9.3 25 Sudoeste 32 Sudoeste 0 -- -- 93
2019-11-14 03:00:00 8.3 18 Sudoeste 29 Oeste 0 -- -- 94
2019-11-14 02:00:00 7.8 22 Oeste 32 Oeste 0 -- -- 92
2019-11-14 01:00:00 9.1 27 Oeste 36 Oeste 0 -- -- 81
2019-11-14 00:00:00 9.3 19 Oeste 30 Oeste 0 -- -- 79
2019-11-13 23:00:00 9.7 24 Oeste 38 Oeste 0 -- -- 77
2019-11-13 22:00:00 10.2 33 Oeste 41 Oeste 0 -- -- 79
2019-11-13 21:00:00 10.8 25 Oeste 33 Oeste 0 -- -- 82
2019-11-13 20:00:00 12.2 30 Oeste 35 Oeste 0 -- -- 79
2019-11-13 19:00:00 13.4 21 Oeste 35 Oeste 0 -- -- 75
2019-11-13 18:00:00 16 28 Oeste 40 Oeste 0 -- -- 68
2019-11-13 17:00:00 17.9 24 Noroeste 37 Oeste 0 -- -- 56
2019-11-13 16:00:00 18.7 27 Oeste 41 Oeste 0 -- -- 61
2019-11-13 15:00:00 18.4 24 Oeste 32 Oeste 0 -- -- 61
2019-11-13 14:00:00 18.3 19 Noroeste 33 Oeste 0 -- -- 61
2019-11-13 13:00:00 17.8 18 Noroeste 31 Oeste 0 -- -- 66
2019-11-13 12:00:00 16.7 23 Noroeste 31 Oeste 0 -- -- 70
2019-11-13 11:00:00 14.9 27 Noroeste 36 Oeste 0 -- -- 78
2019-11-13 10:00:00 13.7 22 Oeste 32 Oeste 0 -- -- 86
2019-11-13 09:00:00 12.4 23 Oeste 33 Oeste 0 -- -- 91
2019-11-13 08:00:00 12.2 20 Oeste 39 Oeste 0 -- -- 95
2019-11-13 07:00:00 12.6 18 Sudoeste 40 Oeste 0 -- -- 97
2019-11-13 06:00:00 12.7 28 Oeste 41 Sudoeste 0 -- -- 97
2019-11-13 05:00:00 12.5 29 Sudoeste 42 Oeste 0 -- -- 96
2019-11-13 04:00:00 12.4 30 Oeste 40 Oeste 0 -- -- 95
2019-11-13 03:00:00 12.2 32 Oeste 45 Oeste 0.2 -- -- 95
2019-11-13 02:00:00 12.2 28 Oeste 41 Oeste 0 -- -- 92
2019-11-13 01:00:00 12 23 Oeste 41 Oeste 0 -- -- 90
2019-11-13 00:00:00 11.9 22 Oeste 28 Oeste 0 -- -- 92
2019-11-12 23:00:00 11.9 22 Oeste 32 Oeste 0 -- -- 93
2019-11-12 22:00:00 12 21 Oeste 31 Oeste 0 -- -- 89
2019-11-12 21:00:00 11.7 19 Oeste 35 Oeste 0 -- -- 87
2019-11-12 20:00:00 11.7 23 Oeste 41 Oeste 0 -- -- 85
2019-11-12 19:00:00 12.9 33 Oeste 44 Oeste 0 -- -- 77
2019-11-12 18:00:00 14 23 Oeste 34 Oeste 0 -- -- 68
2019-11-12 17:00:00 15.4 21 Oeste 32 Noroeste 0 -- -- 58
2019-11-12 16:00:00 15.4 21 Noroeste 34 Norte 0 -- -- 55
2019-11-12 15:00:00 15.4 24 Noroeste 34 Noroeste 0 -- -- 55
2019-11-12 14:00:00 15.4 24 Noroeste 36 Noroeste 0 -- -- 52
2019-11-12 13:00:00 13.5 17 Noroeste 30 Noroeste 0 -- -- 57
2019-11-12 12:00:00 12.2 17 Noroeste 27 Noroeste 0 -- -- 60
2019-11-12 11:00:00 11 22 Norte 28 Norte 0 -- -- 62
2019-11-12 10:00:00 9.4 19 Noroeste 26 Noroeste 0 -- -- 69
2019-11-12 09:00:00 6.4 15 Norte 20 Norte 0 -- -- 80
2019-11-12 08:00:00 5.6 19 Noroeste 21 Noroeste 0 -- -- 84
2019-11-12 07:00:00 5.1 13 Noroeste 19 Noroeste 0 -- -- 87
2019-11-12 06:00:00 5.9 14 Noroeste 17 Noroeste 0 -- -- 86
2019-11-12 05:00:00 6.7 14 Noroeste 23 Noroeste 0 -- -- 83
2019-11-12 04:00:00 7.3 20 Norte 23 Norte 0 -- -- 82
2019-11-12 03:00:00 8 10 Noroeste 13 Noroeste 0 -- -- 79
2019-11-12 02:00:00 8.3 11 Noroeste 22 Noroeste 0 -- -- 78
2019-11-12 01:00:00 8.7 17 Noroeste 27 Norte 0 -- -- 78
2019-11-12 00:00:00 9.3 21 Noroeste 24 Noroeste 0 -- -- 77